sensor_id;sensor_type;location;lat;lon;timestamp;temperature;humidity
41668;DHT22;27356;50.920;5.350;2023-02-28T00:00:05;1.10;99.90
41668;DHT22;27356;50.920;5.350;2023-02-28T00:02:42;1.10;99.90
41668;DHT22;27356;50.920;5.350;2023-02-28T00:05:12;1.10;99.90
41668;DHT22;27356;50.920;5.350;2023-02-28T00:07:38;1.10;99.90
41668;DHT22;27356;50.920;5.350;2023-02-28T00:10:06;1.00;99.90
41668;DHT22;27356;50.920;5.350;2023-02-28T00:12:34;0.90;99.90
41668;DHT22;27356;50.920;5.350;2023-02-28T00:15:06;1.00;99.90
41668;DHT22;27356;50.920;5.350;2023-02-28T00:17:32;0.90;99.90
41668;DHT22;27356;50.920;5.350;2023-02-28T00:19:58;1.10;99.90
41668;DHT22;27356;50.920;5.350;2023-02-28T00:22:36;1.00;99.90
41668;DHT22;27356;50.920;5.350;2023-02-28T00:25:02;0.90;99.90
41668;DHT22;27356;50.920;5.350;2023-02-28T00:27:29;0.90;99.90
41668;DHT22;27356;50.920;5.350;2023-02-28T00:29:55;0.70;99.90
41668;DHT22;27356;50.920;5.350;2023-02-28T00:32:21;0.70;99.90
41668;DHT22;27356;50.920;5.350;2023-02-28T00:34:46;0.60;99.90
41668;DHT22;27356;50.920;5.350;2023-02-28T00:37:12;0.60;99.90
41668;DHT22;27356;50.920;5.350;2023-02-28T00:39:39;0.60;99.90
41668;DHT22;27356;50.920;5.350;2023-02-28T00:42:06;0.70;99.90
41668;DHT22;27356;50.920;5.350;2023-02-28T00:44:32;0.70;99.90
41668;DHT22;27356;50.920;5.350;2023-02-28T00:46:59;0.70;99.90
41668;DHT22;27356;50.920;5.350;2023-02-28T00:49:26;0.80;99.90
41668;DHT22;27356;50.920;5.350;2023-02-28T00:51:52;0.70;99.90
41668;DHT22;27356;50.920;5.350;2023-02-28T00:54:18;0.70;99.90
41668;DHT22;27356;50.920;5.350;2023-02-28T00:56:44;0.60;99.90
41668;DHT22;27356;50.920;5.350;2023-02-28T00:59:12;0.60;99.90
41668;DHT22;27356;50.920;5.350;2023-02-28T01:01:38;0.60;99.90
41668;DHT22;27356;50.920;5.350;2023-02-28T01:04:04;0.60;99.90
41668;DHT22;27356;50.920;5.350;2023-02-28T01:06:30;0.50;99.90
41668;DHT22;27356;50.920;5.350;2023-02-28T01:08:57;0.40;99.90
41668;DHT22;27356;50.920;5.350;2023-02-28T01:11:23;0.40;99.90
41668;DHT22;27356;50.920;5.350;2023-02-28T01:13:49;0.40;99.90
41668;DHT22;27356;50.920;5.350;2023-02-28T01:16:15;0.40;99.90
41668;DHT22;27356;50.920;5.350;2023-02-28T01:18:41;0.30;99.90
41668;DHT22;27356;50.920;5.350;2023-02-28T01:21:13;0.20;99.90
41668;DHT22;27356;50.920;5.350;2023-02-28T01:23:39;0.40;99.90
41668;DHT22;27356;50.920;5.350;2023-02-28T01:26:11;0.50;99.90
41668;DHT22;27356;50.920;5.350;2023-02-28T01:28:37;0.50;99.90
41668;DHT22;27356;50.920;5.350;2023-02-28T01:31:03;0.50;99.90
41668;DHT22;27356;50.920;5.350;2023-02-28T01:33:29;0.50;99.90
41668;DHT22;27356;50.920;5.350;2023-02-28T01:36:06;0.50;99.90
41668;DHT22;27356;50.920;5.350;2023-02-28T01:38:33;0.40;99.90
41668;DHT22;27356;50.920;5.350;2023-02-28T01:40:59;0.30;99.90
41668;DHT22;27356;50.920;5.350;2023-02-28T01:43:30;0.40;99.90
41668;DHT22;27356;50.920;5.350;2023-02-28T01:45:57;0.20;99.90
41668;DHT22;27356;50.920;5.350;2023-02-28T01:48:30;0.20;99.90
41668;DHT22;27356;50.920;5.350;2023-02-28T01:50:59;0.30;99.90
41668;DHT22;27356;50.920;5.350;2023-02-28T01:53:31;0.30;99.90
41668;DHT22;27356;50.920;5.350;2023-02-28T01:55:57;0.30;99.90
41668;DHT22;27356;50.920;5.350;2023-02-28T01:58:23;0.30;99.90
41668;DHT22;27356;50.920;5.350;2023-02-28T02:00:52;0.30;99.90
41668;DHT22;27356;50.920;5.350;2023-02-28T02:03:20;0.20;99.90
41668;DHT22;27356;50.920;5.350;2023-02-28T02:05:46;0.10;99.90
41668;DHT22;27356;50.920;5.350;2023-02-28T02:08:20;0.10;99.90
41668;DHT22;27356;50.920;5.350;2023-02-28T02:11:00;0.10;99.90
41668;DHT22;27356;50.920;5.350;2023-02-28T02:18:53;-0.30;99.90
41668;DHT22;27356;50.920;5.350;2023-02-28T02:24:23;-0.30;99.90
41668;DHT22;27356;50.920;5.350;2023-02-28T02:40:30;0.00;99.90
41668;DHT22;27356;50.920;5.350;2023-02-28T02:43:16;-0.10;99.90
41668;DHT22;27356;50.920;5.350;2023-02-28T02:45:59;-0.10;99.90
41668;DHT22;27356;50.920;5.350;2023-02-28T02:48:30;-0.20;99.90
41668;DHT22;27356;50.920;5.350;2023-02-28T02:51:07;-0.20;99.90
41668;DHT22;27356;50.920;5.350;2023-02-28T02:53:42;-0.20;99.90
41668;DHT22;27356;50.920;5.350;2023-02-28T02:56:09;-0.20;99.90
41668;DHT22;27356;50.920;5.350;2023-02-28T02:58:40;-0.40;99.90
41668;DHT22;27356;50.920;5.350;2023-02-28T03:01:12;-0.30;99.90
41668;DHT22;27356;50.920;5.350;2023-02-28T03:03:39;-0.20;99.90
41668;DHT22;27356;50.920;5.350;2023-02-28T03:06:05;-0.20;99.90
41668;DHT22;27356;50.920;5.350;2023-02-28T03:08:35;-0.20;99.90
41668;DHT22;27356;50.920;5.350;2023-02-28T03:11:04;-0.10;99.90
41668;DHT22;27356;50.920;5.350;2023-02-28T03:16:25;-0.40;99.90
41668;DHT22;27356;50.920;5.350;2023-02-28T03:24:01;-0.20;99.90
41668;DHT22;27356;50.920;5.350;2023-02-28T03:26:30;-0.30;99.90
41668;DHT22;27356;50.920;5.350;2023-02-28T03:31:52;-0.10;99.90
41668;DHT22;27356;50.920;5.350;2023-02-28T03:34:31;-0.20;99.90
41668;DHT22;27356;50.920;5.350;2023-02-28T03:37:03;-0.20;99.90
41668;DHT22;27356;50.920;5.350;2023-02-28T03:39:35;-0.30;99.90
41668;DHT22;27356;50.920;5.350;2023-02-28T03:42:09;-0.50;99.90
41668;DHT22;27356;50.920;5.350;2023-02-28T03:45:08;-0.60;99.90
41668;DHT22;27356;50.920;5.350;2023-02-28T03:47:52;-0.70;99.90
41668;DHT22;27356;50.920;5.350;2023-02-28T03:50:22;-0.60;99.90
41668;DHT22;27356;50.920;5.350;2023-02-28T03:53:46;-0.70;99.90
41668;DHT22;27356;50.920;5.350;2023-02-28T03:56:14;-0.70;99.90
41668;DHT22;27356;50.920;5.350;2023-02-28T03:58:55;-0.70;99.90
41668;DHT22;27356;50.920;5.350;2023-02-28T04:01:33;-0.80;99.90
41668;DHT22;27356;50.920;5.350;2023-02-28T04:04:01;-0.70;99.90
41668;DHT22;27356;50.920;5.350;2023-02-28T04:06:31;-0.60;99.90
41668;DHT22;27356;50.920;5.350;2023-02-28T04:08:57;-0.40;99.90
41668;DHT22;27356;50.920;5.350;2023-02-28T04:11:33;-0.50;99.90
41668;DHT22;27356;50.920;5.350;2023-02-28T04:14:04;-0.60;99.90
41668;DHT22;27356;50.920;5.350;2023-02-28T04:16:31;-0.60;99.90
41668;DHT22;27356;50.920;5.350;2023-02-28T04:18:57;-0.50;99.90
41668;DHT22;27356;50.920;5.350;2023-02-28T04:21:36;-0.50;99.90
41668;DHT22;27356;50.920;5.350;2023-02-28T04:24:04;-0.80;99.90
41668;DHT22;27356;50.920;5.350;2023-02-28T04:26:36;-0.70;99.90
41668;DHT22;27356;50.920;5.350;2023-02-28T04:29:06;-0.60;99.90
41668;DHT22;27356;50.920;5.350;2023-02-28T04:31:33;-0.70;99.90
41668;DHT22;27356;50.920;5.350;2023-02-28T04:33:59;-0.70;99.90
41668;DHT22;27356;50.920;5.350;2023-02-28T04:36:25;-0.60;99.90
41668;DHT22;27356;50.920;5.350;2023-02-28T04:38:50;-0.40;99.90
41668;DHT22;27356;50.920;5.350;2023-02-28T04:41:16;-0.50;99.90
41668;DHT22;27356;50.920;5.350;2023-02-28T04:43:42;-0.50;99.90
41668;DHT22;27356;50.920;5.350;2023-02-28T04:46:08;-0.60;99.90
41668;DHT22;27356;50.920;5.350;2023-02-28T04:48:36;-0.70;99.90
41668;DHT22;27356;50.920;5.350;2023-02-28T04:51:10;-0.80;99.90
41668;DHT22;27356;50.920;5.350;2023-02-28T04:53:37;-0.70;99.90
41668;DHT22;27356;50.920;5.350;2023-02-28T04:56:03;-0.70;99.90
41668;DHT22;27356;50.920;5.350;2023-02-28T04:58:29;-0.70;99.90
41668;DHT22;27356;50.920;5.350;2023-02-28T05:01:02;-0.60;99.90
41668;DHT22;27356;50.920;5.350;2023-02-28T05:03:28;-0.70;99.90
41668;DHT22;27356;50.920;5.350;2023-02-28T05:05:54;-0.70;99.90
41668;DHT22;27356;50.920;5.350;2023-02-28T05:08:20;-0.70;99.90
41668;DHT22;27356;50.920;5.350;2023-02-28T05:10:46;-0.80;99.90
41668;DHT22;27356;50.920;5.350;2023-02-28T05:13:12;-0.80;99.90
41668;DHT22;27356;50.920;5.350;2023-02-28T05:15:38;-0.90;99.90
41668;DHT22;27356;50.920;5.350;2023-02-28T05:18:03;-0.90;99.90
41668;DHT22;27356;50.920;5.350;2023-02-28T05:20:29;-0.90;99.90
41668;DHT22;27356;50.920;5.350;2023-02-28T05:22:56;-1.00;99.90
41668;DHT22;27356;50.920;5.350;2023-02-28T05:25:22;-1.10;99.90
41668;DHT22;27356;50.920;5.350;2023-02-28T05:27:48;-1.40;99.90
41668;DHT22;27356;50.920;5.350;2023-02-28T05:30:14;-1.50;99.90
41668;DHT22;27356;50.920;5.350;2023-02-28T05:32:41;-1.50;99.90
41668;DHT22;27356;50.920;5.350;2023-02-28T05:35:10;-1.60;99.90
41668;DHT22;27356;50.920;5.350;2023-02-28T05:37:37;-1.60;99.90
41668;DHT22;27356;50.920;5.350;2023-02-28T05:40:04;-1.60;99.90
41668;DHT22;27356;50.920;5.350;2023-02-28T05:42:36;-1.50;99.90
41668;DHT22;27356;50.920;5.350;2023-02-28T05:45:03;-1.60;99.90
41668;DHT22;27356;50.920;5.350;2023-02-28T05:47:29;-1.60;99.90
41668;DHT22;27356;50.920;5.350;2023-02-28T05:49:55;-1.60;99.90
41668;DHT22;27356;50.920;5.350;2023-02-28T05:52:21;-1.50;99.90
41668;DHT22;27356;50.920;5.350;2023-02-28T05:54:47;-1.60;99.90
41668;DHT22;27356;50.920;5.350;2023-02-28T05:57:13;-1.70;99.90
41668;DHT22;27356;50.920;5.350;2023-02-28T05:59:39;-1.80;99.90
41668;DHT22;27356;50.920;5.350;2023-02-28T06:02:06;-1.90;99.90
41668;DHT22;27356;50.920;5.350;2023-02-28T06:04:36;-1.90;99.90
41668;DHT22;27356;50.920;5.350;2023-02-28T06:07:01;-1.90;99.90
41668;DHT22;27356;50.920;5.350;2023-02-28T06:09:27;-1.60;99.90
41668;DHT22;27356;50.920;5.350;2023-02-28T06:11:53;-1.40;99.90
41668;DHT22;27356;50.920;5.350;2023-02-28T06:14:20;-1.40;99.90
41668;DHT22;27356;50.920;5.350;2023-02-28T06:16:46;-1.20;99.90
41668;DHT22;27356;50.920;5.350;2023-02-28T06:19:15;-1.10;99.90
41668;DHT22;27356;50.920;5.350;2023-02-28T06:21:41;-1.20;99.90
41668;DHT22;27356;50.920;5.350;2023-02-28T06:24:07;-1.30;99.90
41668;DHT22;27356;50.920;5.350;2023-02-28T06:26:33;-1.50;99.90
41668;DHT22;27356;50.920;5.350;2023-02-28T06:28:59;-1.50;99.90
41668;DHT22;27356;50.920;5.350;2023-02-28T06:31:28;-1.50;99.90
41668;DHT22;27356;50.920;5.350;2023-02-28T06:33:55;-1.40;99.90
41668;DHT22;27356;50.920;5.350;2023-02-28T06:36:20;-1.40;99.90
41668;DHT22;27356;50.920;5.350;2023-02-28T06:38:46;-1.20;99.90
41668;DHT22;27356;50.920;5.350;2023-02-28T06:41:17;-1.20;99.90
41668;DHT22;27356;50.920;5.350;2023-02-28T06:43:43;-1.10;99.90
41668;DHT22;27356;50.920;5.350;2023-02-28T06:46:12;-1.10;99.90
41668;DHT22;27356;50.920;5.350;2023-02-28T06:48:39;-1.10;99.90
41668;DHT22;27356;50.920;5.350;2023-02-28T06:51:07;-1.10;99.90
41668;DHT22;27356;50.920;5.350;2023-02-28T06:53:34;-1.00;99.90
41668;DHT22;27356;50.920;5.350;2023-02-28T06:56:04;-0.90;99.90
41668;DHT22;27356;50.920;5.350;2023-02-28T06:58:31;-1.00;99.90
41668;DHT22;27356;50.920;5.350;2023-02-28T07:00:56;-0.70;99.90
41668;DHT22;27356;50.920;5.350;2023-02-28T07:03:22;-0.40;99.90
41668;DHT22;27356;50.920;5.350;2023-02-28T07:05:48;-0.20;99.90
41668;DHT22;27356;50.920;5.350;2023-02-28T07:08:14;0.20;99.90
41668;DHT22;27356;50.920;5.350;2023-02-28T07:10:40;0.70;99.90
41668;DHT22;27356;50.920;5.350;2023-02-28T07:13:07;0.80;99.90
41668;DHT22;27356;50.920;5.350;2023-02-28T07:15:34;1.00;99.90
41668;DHT22;27356;50.920;5.350;2023-02-28T07:18:03;1.40;99.90
41668;DHT22;27356;50.920;5.350;2023-02-28T07:20:29;1.60;99.90
41668;DHT22;27356;50.920;5.350;2023-02-28T07:22:55;1.90;99.90
41668;DHT22;27356;50.920;5.350;2023-02-28T07:25:30;2.20;99.90
41668;DHT22;27356;50.920;5.350;2023-02-28T07:27:57;2.60;99.90
41668;DHT22;27356;50.920;5.350;2023-02-28T07:30:24;2.60;99.90
41668;DHT22;27356;50.920;5.350;2023-02-28T07:32:50;2.90;99.90
41668;DHT22;27356;50.920;5.350;2023-02-28T07:35:15;3.10;99.90
41668;DHT22;27356;50.920;5.350;2023-02-28T07:37:42;3.10;99.90
41668;DHT22;27356;50.920;5.350;2023-02-28T07:40:09;2.90;99.90
41668;DHT22;27356;50.920;5.350;2023-02-28T07:42:37;3.10;99.90
41668;DHT22;27356;50.920;5.350;2023-02-28T07:45:04;3.10;99.90
41668;DHT22;27356;50.920;5.350;2023-02-28T07:47:30;3.50;99.90
41668;DHT22;27356;50.920;5.350;2023-02-28T07:49:57;3.80;99.90
41668;DHT22;27356;50.920;5.350;2023-02-28T07:52:24;3.90;99.90
41668;DHT22;27356;50.920;5.350;2023-02-28T07:54:50;3.90;99.90
41668;DHT22;27356;50.920;5.350;2023-02-28T07:57:16;3.90;99.90
41668;DHT22;27356;50.920;5.350;2023-02-28T07:59:42;4.30;99.60
41668;DHT22;27356;50.920;5.350;2023-02-28T08:02:13;4.50;98.80
41668;DHT22;27356;50.920;5.350;2023-02-28T08:04:40;4.10;98.70
41668;DHT22;27356;50.920;5.350;2023-02-28T08:07:06;4.20;98.70
41668;DHT22;27356;50.920;5.350;2023-02-28T08:09:32;4.10;98.50
41668;DHT22;27356;50.920;5.350;2023-02-28T08:11:57;4.30;98.80
41668;DHT22;27356;50.920;5.350;2023-02-28T08:14:23;4.50;97.80
41668;DHT22;27356;50.920;5.350;2023-02-28T08:16:49;4.40;97.90
41668;DHT22;27356;50.920;5.350;2023-02-28T08:19:15;4.50;97.40
41668;DHT22;27356;50.920;5.350;2023-02-28T08:21:41;4.00;98.30
41668;DHT22;27356;50.920;5.350;2023-02-28T08:24:06;4.10;98.60
41668;DHT22;27356;50.920;5.350;2023-02-28T08:26:32;4.30;97.90
41668;DHT22;27356;50.920;5.350;2023-02-28T08:28:58;4.40;97.10
41668;DHT22;27356;50.920;5.350;2023-02-28T08:31:24;4.60;97.00
41668;DHT22;27356;50.920;5.350;2023-02-28T08:33:50;4.50;97.20
41668;DHT22;27356;50.920;5.350;2023-02-28T08:36:17;4.70;96.60
41668;DHT22;27356;50.920;5.350;2023-02-28T08:38:43;4.50;96.50
41668;DHT22;27356;50.920;5.350;2023-02-28T08:41:12;4.80;96.70
41668;DHT22;27356;50.920;5.350;2023-02-28T08:43:39;4.80;95.90
41668;DHT22;27356;50.920;5.350;2023-02-28T08:46:11;5.10;95.10
41668;DHT22;27356;50.920;5.350;2023-02-28T08:48:37;5.00;95.50
41668;DHT22;27356;50.920;5.350;2023-02-28T08:51:06;5.00;95.40
41668;DHT22;27356;50.920;5.350;2023-02-28T08:53:35;5.40;94.30
41668;DHT22;27356;50.920;5.350;2023-02-28T08:56:03;5.20;94.90
41668;DHT22;27356;50.920;5.350;2023-02-28T08:58:29;5.00;94.90
41668;DHT22;27356;50.920;5.350;2023-02-28T09:00:55;4.80;94.20
41668;DHT22;27356;50.920;5.350;2023-02-28T09:03:22;4.90;94.60
41668;DHT22;27356;50.920;5.350;2023-02-28T09:05:59;5.30;94.20
41668;DHT22;27356;50.920;5.350;2023-02-28T09:08:27;5.10;94.10
41668;DHT22;27356;50.920;5.350;2023-02-28T09:10:53;5.30;93.00
41668;DHT22;27356;50.920;5.350;2023-02-28T09:13:20;5.20;93.00
41668;DHT22;27356;50.920;5.350;2023-02-28T09:15:46;5.10;93.30
41668;DHT22;27356;50.920;5.350;2023-02-28T09:18:12;5.30;92.40
41668;DHT22;27356;50.920;5.350;2023-02-28T09:20:39;5.70;91.60
41668;DHT22;27356;50.920;5.350;2023-02-28T09:23:09;5.60;91.60
41668;DHT22;27356;50.920;5.350;2023-02-28T09:25:40;5.20;91.70
41668;DHT22;27356;50.920;5.350;2023-02-28T09:28:10;5.00;91.00
41668;DHT22;27356;50.920;5.350;2023-02-28T09:30:37;5.00;91.10
41668;DHT22;27356;50.920;5.350;2023-02-28T09:33:03;5.10;90.60
41668;DHT22;27356;50.920;5.350;2023-02-28T09:35:29;4.80;90.90
41668;DHT22;27356;50.920;5.350;2023-02-28T09:37:56;4.70;89.30
41668;DHT22;27356;50.920;5.350;2023-02-28T09:40:24;4.50;88.70
41668;DHT22;27356;50.920;5.350;2023-02-28T09:42:54;4.00;89.10
41668;DHT22;27356;50.920;5.350;2023-02-28T09:45:29;3.90;89.50
41668;DHT22;27356;50.920;5.350;2023-02-28T09:48:01;3.70;89.90
41668;DHT22;27356;50.920;5.350;2023-02-28T09:50:38;3.50;89.80
41668;DHT22;27356;50.920;5.350;2023-02-28T09:53:19;3.30;90.70
41668;DHT22;27356;50.920;5.350;2023-02-28T09:55:51;3.30;91.20
41668;DHT22;27356;50.920;5.350;2023-02-28T09:58:28;3.40;90.50
41668;DHT22;27356;50.920;5.350;2023-02-28T10:03:50;3.50;90.40
41668;DHT22;27356;50.920;5.350;2023-02-28T10:06:26;3.60;90.40
41668;DHT22;27356;50.920;5.350;2023-02-28T10:11:29;3.60;91.00
41668;DHT22;27356;50.920;5.350;2023-02-28T10:14:02;3.70;90.00
41668;DHT22;27356;50.920;5.350;2023-02-28T10:16:46;3.60;89.90
41668;DHT22;27356;50.920;5.350;2023-02-28T10:19:29;3.60;90.20
41668;DHT22;27356;50.920;5.350;2023-02-28T10:22:01;3.50;89.00
41668;DHT22;27356;50.920;5.350;2023-02-28T10:24:42;3.50;90.20
41668;DHT22;27356;50.920;5.350;2023-02-28T10:29:54;3.60;90.00
41668;DHT22;27356;50.920;5.350;2023-02-28T10:32:23;3.80;90.50
41668;DHT22;27356;50.920;5.350;2023-02-28T10:34:57;3.80;88.20
41668;DHT22;27356;50.920;5.350;2023-02-28T10:37:23;3.70;88.20
41668;DHT22;27356;50.920;5.350;2023-02-28T10:39:49;3.60;87.40
41668;DHT22;27356;50.920;5.350;2023-02-28T10:42:29;3.70;87.00
41668;DHT22;27356;50.920;5.350;2023-02-28T10:45:16;3.60;85.90
41668;DHT22;27356;50.920;5.350;2023-02-28T10:53:15;3.60;84.60
41668;DHT22;27356;50.920;5.350;2023-02-28T10:55:42;3.70;84.30
41668;DHT22;27356;50.920;5.350;2023-02-28T10:58:24;3.90;82.90
41668;DHT22;27356;50.920;5.350;2023-02-28T11:00:51;3.90;84.10
41668;DHT22;27356;50.920;5.350;2023-02-28T11:05:51;4.00;83.00
41668;DHT22;27356;50.920;5.350;2023-02-28T11:08:17;4.10;83.50
41668;DHT22;27356;50.920;5.350;2023-02-28T11:10:57;4.00;80.70
41668;DHT22;27356;50.920;5.350;2023-02-28T11:13:32;4.00;82.50
41668;DHT22;27356;50.920;5.350;2023-02-28T11:16:02;4.00;81.70
41668;DHT22;27356;50.920;5.350;2023-02-28T11:18:44;4.10;80.70
41668;DHT22;27356;50.920;5.350;2023-02-28T11:21:18;4.10;79.80
41668;DHT22;27356;50.920;5.350;2023-02-28T11:23:45;4.20;79.60
41668;DHT22;27356;50.920;5.350;2023-02-28T11:26:14;4.30;80.90
41668;DHT22;27356;50.920;5.350;2023-02-28T11:28:41;4.10;80.10
41668;DHT22;27356;50.920;5.350;2023-02-28T11:34:22;4.10;79.60
41668;DHT22;27356;50.920;5.350;2023-02-28T11:36:48;4.00;79.00
41668;DHT22;27356;50.920;5.350;2023-02-28T11:39:15;4.00;79.10
41668;DHT22;27356;50.920;5.350;2023-02-28T11:52:52;4.10;78.80
41668;DHT22;27356;50.920;5.350;2023-02-28T11:58:27;4.20;79.20
41668;DHT22;27356;50.920;5.350;2023-02-28T12:04:35;4.30;80.30
41668;DHT22;27356;50.920;5.350;2023-02-28T12:07:31;4.50;79.50
41668;DHT22;27356;50.920;5.350;2023-02-28T12:10:11;4.60;79.20
41668;DHT22;27356;50.920;5.350;2023-02-28T12:12:38;4.60;80.50
41668;DHT22;27356;50.920;5.350;2023-02-28T12:28:13;4.50;79.10
41668;DHT22;27356;50.920;5.350;2023-02-28T12:31:04;4.30;78.20
41668;DHT22;27356;50.920;5.350;2023-02-28T12:33:38;4.30;77.90
41668;DHT22;27356;50.920;5.350;2023-02-28T12:36:10;4.30;79.40
41668;DHT22;27356;50.920;5.350;2023-02-28T12:39:02;4.40;78.80
41668;DHT22;27356;50.920;5.350;2023-02-28T12:44:32;4.40;79.80
41668;DHT22;27356;50.920;5.350;2023-02-28T12:47:03;4.40;80.70
41668;DHT22;27356;50.920;5.350;2023-02-28T12:49:34;4.50;80.60
41668;DHT22;27356;50.920;5.350;2023-02-28T12:52:04;4.60;79.70
41668;DHT22;27356;50.920;5.350;2023-02-28T12:54:53;4.60;78.90
41668;DHT22;27356;50.920;5.350;2023-02-28T12:57:48;4.50;80.20
41668;DHT22;27356;50.920;5.350;2023-02-28T13:00:16;4.50;80.40
41668;DHT22;27356;50.920;5.350;2023-02-28T13:10:50;4.50;78.60
41668;DHT22;27356;50.920;5.350;2023-02-28T13:13:24;4.60;79.50
41668;DHT22;27356;50.920;5.350;2023-02-28T13:18:34;4.60;78.60
41668;DHT22;27356;50.920;5.350;2023-02-28T13:21:03;4.60;78.90
41668;DHT22;27356;50.920;5.350;2023-02-28T13:23:41;4.50;79.30
41668;DHT22;27356;50.920;5.350;2023-02-28T13:34:32;4.80;80.00
41668;DHT22;27356;50.920;5.350;2023-02-28T13:37:37;4.70;79.90
41668;DHT22;27356;50.920;5.350;2023-02-28T13:42:46;4.80;80.60
41668;DHT22;27356;50.920;5.350;2023-02-28T13:47:51;4.70;79.80
41668;DHT22;27356;50.920;5.350;2023-02-28T13:55:48;4.80;80.60
41668;DHT22;27356;50.920;5.350;2023-02-28T14:01:22;4.80;80.10
41668;DHT22;27356;50.920;5.350;2023-02-28T14:06:56;4.80;80.20
41668;DHT22;27356;50.920;5.350;2023-02-28T14:09:30;4.70;81.30
41668;DHT22;27356;50.920;5.350;2023-02-28T14:11:58;4.80;80.80
41668;DHT22;27356;50.920;5.350;2023-02-28T14:17:15;4.80;81.10
41668;DHT22;27356;50.920;5.350;2023-02-28T14:19:43;4.80;81.30
41668;DHT22;27356;50.920;5.350;2023-02-28T14:31:15;4.90;81.80
41668;DHT22;27356;50.920;5.350;2023-02-28T14:36:33;5.00;81.50
41668;DHT22;27356;50.920;5.350;2023-02-28T14:39:01;4.90;82.00
41668;DHT22;27356;50.920;5.350;2023-02-28T14:43:58;4.90;81.80
41668;DHT22;27356;50.920;5.350;2023-02-28T14:46:37;4.90;83.10
41668;DHT22;27356;50.920;5.350;2023-02-28T14:49:04;5.00;83.40
41668;DHT22;27356;50.920;5.350;2023-02-28T14:51:31;5.00;82.70
41668;DHT22;27356;50.920;5.350;2023-02-28T14:54:00;5.00;82.50
41668;DHT22;27356;50.920;5.350;2023-02-28T14:56:39;5.00;82.90
41668;DHT22;27356;50.920;5.350;2023-02-28T14:59:17;4.90;82.60
41668;DHT22;27356;50.920;5.350;2023-02-28T15:01:47;4.90;83.50
41668;DHT22;27356;50.920;5.350;2023-02-28T15:04:26;4.90;83.40
41668;DHT22;27356;50.920;5.350;2023-02-28T15:07:17;4.80;82.60
41668;DHT22;27356;50.920;5.350;2023-02-28T15:09:43;4.80;81.90
41668;DHT22;27356;50.920;5.350;2023-02-28T15:12:13;4.90;81.90
41668;DHT22;27356;50.920;5.350;2023-02-28T15:14:42;4.90;82.60
41668;DHT22;27356;50.920;5.350;2023-02-28T15:17:22;5.00;82.90
41668;DHT22;27356;50.920;5.350;2023-02-28T15:19:51;4.90;83.90
41668;DHT22;27356;50.920;5.350;2023-02-28T15:22:26;4.90;83.00
41668;DHT22;27356;50.920;5.350;2023-02-28T15:24:55;4.90;82.70
41668;DHT22;27356;50.920;5.350;2023-02-28T15:27:25;4.80;83.10
41668;DHT22;27356;50.920;5.350;2023-02-28T15:30:04;4.90;82.70
41668;DHT22;27356;50.920;5.350;2023-02-28T15:33:17;4.90;82.50
41668;DHT22;27356;50.920;5.350;2023-02-28T15:35:43;5.00;82.50
41668;DHT22;27356;50.920;5.350;2023-02-28T15:40:44;4.80;82.90
41668;DHT22;27356;50.920;5.350;2023-02-28T15:43:33;4.80;83.60
41668;DHT22;27356;50.920;5.350;2023-02-28T15:46:25;4.90;82.90
41668;DHT22;27356;50.920;5.350;2023-02-28T15:48:53;4.90;81.40
41668;DHT22;27356;50.920;5.350;2023-02-28T15:51:28;4.90;82.00
41668;DHT22;27356;50.920;5.350;2023-02-28T15:54:07;5.00;81.80
41668;DHT22;27356;50.920;5.350;2023-02-28T15:56:42;4.90;82.50
41668;DHT22;27356;50.920;5.350;2023-02-28T15:59:21;5.10;82.10
41668;DHT22;27356;50.920;5.350;2023-02-28T16:02:29;5.10;81.70
41668;DHT22;27356;50.920;5.350;2023-02-28T16:07:32;5.00;81.70
41668;DHT22;27356;50.920;5.350;2023-02-28T16:09:59;4.80;82.60
41668;DHT22;27356;50.920;5.350;2023-02-28T16:12:31;4.80;83.40
41668;DHT22;27356;50.920;5.350;2023-02-28T16:15:00;4.70;83.10
41668;DHT22;27356;50.920;5.350;2023-02-28T16:17:31;4.70;83.30
41668;DHT22;27356;50.920;5.350;2023-02-28T16:19:58;4.70;83.10
41668;DHT22;27356;50.920;5.350;2023-02-28T16:22:24;4.70;83.20
41668;DHT22;27356;50.920;5.350;2023-02-28T16:24:49;4.70;84.10
41668;DHT22;27356;50.920;5.350;2023-02-28T16:27:38;4.80;83.80
41668;DHT22;27356;50.920;5.350;2023-02-28T16:30:05;4.80;83.20
41668;DHT22;27356;50.920;5.350;2023-02-28T16:32:34;4.80;82.90
41668;DHT22;27356;50.920;5.350;2023-02-28T16:35:01;4.80;82.60
41668;DHT22;27356;50.920;5.350;2023-02-28T16:37:27;4.90;82.50
41668;DHT22;27356;50.920;5.350;2023-02-28T16:39:53;4.80;83.10
41668;DHT22;27356;50.920;5.350;2023-02-28T16:42:28;4.60;83.90
41668;DHT22;27356;50.920;5.350;2023-02-28T16:44:55;4.70;83.80
41668;DHT22;27356;50.920;5.350;2023-02-28T16:47:21;4.70;84.10
41668;DHT22;27356;50.920;5.350;2023-02-28T16:49:47;4.70;83.90
41668;DHT22;27356;50.920;5.350;2023-02-28T16:52:13;4.70;83.90
41668;DHT22;27356;50.920;5.350;2023-02-28T16:54:40;4.60;83.80
41668;DHT22;27356;50.920;5.350;2023-02-28T16:57:21;4.50;83.90
41668;DHT22;27356;50.920;5.350;2023-02-28T16:59:49;4.50;84.10
41668;DHT22;27356;50.920;5.350;2023-02-28T17:02:18;4.70;84.20
41668;DHT22;27356;50.920;5.350;2023-02-28T17:04:45;4.60;84.20
41668;DHT22;27356;50.920;5.350;2023-02-28T17:07:14;4.60;84.20
41668;DHT22;27356;50.920;5.350;2023-02-28T17:09:42;4.50;84.30
41668;DHT22;27356;50.920;5.350;2023-02-28T17:12:08;4.60;84.90
41668;DHT22;27356;50.920;5.350;2023-02-28T17:14:34;4.60;84.50
41668;DHT22;27356;50.920;5.350;2023-02-28T17:17:00;4.50;85.00
41668;DHT22;27356;50.920;5.350;2023-02-28T17:19:26;4.40;85.50
41668;DHT22;27356;50.920;5.350;2023-02-28T17:21:51;4.40;85.20
41668;DHT22;27356;50.920;5.350;2023-02-28T17:24:18;4.40;85.20
41668;DHT22;27356;50.920;5.350;2023-02-28T17:26:43;4.30;85.70
41668;DHT22;27356;50.920;5.350;2023-02-28T17:29:20;4.40;85.80
41668;DHT22;27356;50.920;5.350;2023-02-28T17:31:47;4.40;85.80
41668;DHT22;27356;50.920;5.350;2023-02-28T17:34:13;4.30;85.80
41668;DHT22;27356;50.920;5.350;2023-02-28T17:36:49;4.10;86.30
41668;DHT22;27356;50.920;5.350;2023-02-28T17:39:17;4.20;86.40
41668;DHT22;27356;50.920;5.350;2023-02-28T17:41:53;4.20;86.40
41668;DHT22;27356;50.920;5.350;2023-02-28T17:44:23;4.20;86.80
41668;DHT22;27356;50.920;5.350;2023-02-28T17:46:50;4.20;86.80
41668;DHT22;27356;50.920;5.350;2023-02-28T17:49:19;4.00;87.30
41668;DHT22;27356;50.920;5.350;2023-02-28T17:51:45;4.00;87.50
41668;DHT22;27356;50.920;5.350;2023-02-28T17:54:11;4.00;87.70
41668;DHT22;27356;50.920;5.350;2023-02-28T17:56:37;4.00;87.70
41668;DHT22;27356;50.920;5.350;2023-02-28T17:59:03;4.00;87.90
41668;DHT22;27356;50.920;5.350;2023-02-28T18:01:29;4.00;88.00
41668;DHT22;27356;50.920;5.350;2023-02-28T18:03:54;4.00;87.90
41668;DHT22;27356;50.920;5.350;2023-02-28T18:08:46;3.90;87.80
41668;DHT22;27356;50.920;5.350;2023-02-28T18:11:12;3.90;88.10
41668;DHT22;27356;50.920;5.350;2023-02-28T18:13:55;3.90;88.10
41668;DHT22;27356;50.920;5.350;2023-02-28T18:16:22;3.80;88.80
41668;DHT22;27356;50.920;5.350;2023-02-28T18:18:48;3.70;89.10
41668;DHT22;27356;50.920;5.350;2023-02-28T18:21:15;3.70;89.50
41668;DHT22;27356;50.920;5.350;2023-02-28T18:23:42;3.70;89.10
41668;DHT22;27356;50.920;5.350;2023-02-28T18:26:17;3.60;89.60